sensor_id;sensor_type;location;lat;lon;timestamp;pressure;altitude;pressure_sealevel;temperature;humidity
61136;BME280;47021;51.340;12.432;2023-02-10T00:01:47;101903.03;;;2.45;55.12
61136;BME280;47021;51.340;12.432;2023-02-10T00:04:12;101905.09;;;2.29;55.69
61136;BME280;47021;51.340;12.432;2023-02-10T00:06:39;101908.84;;;2.54;54.91
61136;BME280;47021;51.340;12.432;2023-02-10T00:09:12;101902.63;;;2.61;54.56
61136;BME280;47021;51.340;12.432;2023-02-10T00:11:37;101907.09;;;2.55;54.73
61136;BME280;47021;51.340;12.432;2023-02-10T00:14:03;101905.81;;;2.34;55.12
61136;BME280;47021;51.340;12.432;2023-02-10T00:16:30;101904.59;;;2.50;54.96
61136;BME280;47021;51.340;12.432;2023-02-10T00:18:56;101910.28;;;2.26;55.39
61136;BME280;47021;51.340;12.432;2023-02-10T00:21:27;101905.00;;;2.32;55.24
61136;BME280;47021;51.340;12.432;2023-02-10T00:23:52;101906.31;;;2.51;55.05
61136;BME280;47021;51.340;12.432;2023-02-10T00:26:19;101905.53;;;2.48;54.91
61136;BME280;47021;51.340;12.432;2023-02-10T00:28:45;101901.16;;;2.51;55.04
61136;BME280;47021;51.340;12.432;2023-02-10T00:31:17;101917.78;;;2.38;55.17
61136;BME280;47021;51.340;12.432;2023-02-10T00:33:49;101914.88;;;2.53;55.24
61136;BME280;47021;51.340;12.432;2023-02-10T00:36:15;101910.56;;;2.52;55.05
61136;BME280;47021;51.340;12.432;2023-02-10T00:38:41;101913.91;;;2.57;55.29
61136;BME280;47021;51.340;12.432;2023-02-10T00:41:08;101917.34;;;2.58;55.34
61136;BME280;47021;51.340;12.432;2023-02-10T00:43:33;101907.03;;;2.58;55.34
61136;BME280;47021;51.340;12.432;2023-02-10T00:45:59;101923.09;;;2.70;54.94
61136;BME280;47021;51.340;12.432;2023-02-10T00:48:26;101916.03;;;2.78;55.00
61136;BME280;47021;51.340;12.432;2023-02-10T00:50:51;101916.97;;;2.74;55.12
61136;BME280;47021;51.340;12.432;2023-02-10T00:53:17;101921.63;;;2.97;54.77
61136;BME280;47021;51.340;12.432;2023-02-10T00:55:48;101925.50;;;2.78;54.98
61136;BME280;47021;51.340;12.432;2023-02-10T01:03:38;101932.56;;;2.70;56.15
61136;BME280;47021;51.340;12.432;2023-02-10T01:06:17;101939.63;;;2.99;55.24
61136;BME280;47021;51.340;12.432;2023-02-10T01:08:42;101937.09;;;3.32;54.01
61136;BME280;47021;51.340;12.432;2023-02-10T01:11:08;101939.97;;;3.22;54.78
61136;BME280;47021;51.340;12.432;2023-02-10T01:13:40;101930.00;;;3.42;54.26
61136;BME280;47021;51.340;12.432;2023-02-10T01:16:10;101933.19;;;3.51;53.53
61136;BME280;47021;51.340;12.432;2023-02-10T01:18:37;101930.78;;;3.45;53.95
61136;BME280;47021;51.340;12.432;2023-02-10T01:21:13;101933.88;;;3.60;54.00
61136;BME280;47021;51.340;12.432;2023-02-10T01:23:53;101926.81;;;3.65;53.56
61136;BME280;47021;51.340;12.432;2023-02-10T01:26:18;101937.53;;;3.85;53.28
61136;BME280;47021;51.340;12.432;2023-02-10T01:28:51;101939.50;;;3.75;53.31
61136;BME280;47021;51.340;12.432;2023-02-10T01:34:08;101926.56;;;4.07;52.72
61136;BME280;47021;51.340;12.432;2023-02-10T01:39:06;101927.56;;;4.02;53.04
61136;BME280;47021;51.340;12.432;2023-02-10T01:41:38;101929.66;;;3.88;52.93
61136;BME280;47021;51.340;12.432;2023-02-10T01:44:05;101928.41;;;4.02;52.86
61136;BME280;47021;51.340;12.432;2023-02-10T01:46:33;101934.38;;;4.04;52.87
61136;BME280;47021;51.340;12.432;2023-02-10T01:49:08;101928.34;;;4.05;52.80
61136;BME280;47021;51.340;12.432;2023-02-10T01:54:19;101937.78;;;4.06;53.01
61136;BME280;47021;51.340;12.432;2023-02-10T01:56:48;101938.16;;;3.93;53.39
61136;BME280;47021;51.340;12.432;2023-02-10T01:59:22;101937.81;;;4.05;52.85
61136;BME280;47021;51.340;12.432;2023-02-10T02:01:49;101926.69;;;4.03;52.90
61136;BME280;47021;51.340;12.432;2023-02-10T02:04:18;101928.13;;;4.13;52.50
61136;BME280;47021;51.340;12.432;2023-02-10T02:06:43;101920.28;;;4.16;52.91
61136;BME280;47021;51.340;12.432;2023-02-10T02:09:11;101921.94;;;4.18;52.95
61136;BME280;47021;51.340;12.432;2023-02-10T02:11:57;101920.19;;;3.88;53.63
61136;BME280;47021;51.340;12.432;2023-02-10T02:14:39;101912.97;;;4.01;53.37
61136;BME280;47021;51.340;12.432;2023-02-10T02:20:01;101916.25;;;4.06;53.43
61136;BME280;47021;51.340;12.432;2023-02-10T02:32:54;101926.84;;;3.97;53.76
61136;BME280;47021;51.340;12.432;2023-02-10T02:35:33;101928.97;;;3.81;54.43
61136;BME280;47021;51.340;12.432;2023-02-10T02:38:03;101939.75;;;3.65;55.43
61136;BME280;47021;51.340;12.432;2023-02-10T02:40:28;101935.75;;;3.87;55.44
61136;BME280;47021;51.340;12.432;2023-02-10T02:42:53;101938.09;;;3.94;55.22
61136;BME280;47021;51.340;12.432;2023-02-10T02:45:20;101937.56;;;4.14;54.73
61136;BME280;47021;51.340;12.432;2023-02-10T02:51:17;101929.69;;;4.18;55.12
61136;BME280;47021;51.340;12.432;2023-02-10T03:01:52;101924.72;;;4.11;56.10
61136;BME280;47021;51.340;12.432;2023-02-10T03:04:11;101931.75;;;4.06;56.03
61136;BME280;47021;51.340;12.432;2023-02-10T03:06:51;101939.97;;;4.21;56.01
61136;BME280;47021;51.340;12.432;2023-02-10T03:09:16;101934.41;;;4.35;55.65
61136;BME280;47021;51.340;12.432;2023-02-10T03:11:42;101936.94;;;4.37;55.60
61136;BME280;47021;51.340;12.432;2023-02-10T03:14:09;101939.31;;;4.13;56.27
61136;BME280;47021;51.340;12.432;2023-02-10T03:16:43;101953.47;;;4.00;56.96
61136;BME280;47021;51.340;12.432;2023-02-10T03:19:09;101945.00;;;4.26;56.24
61136;BME280;47021;51.340;12.432;2023-02-10T03:21:35;101941.91;;;4.44;55.93
61136;BME280;47021;51.340;12.432;2023-02-10T03:24:16;101942.50;;;4.52;55.57
61136;BME280;47021;51.340;12.432;2023-02-10T03:26:48;101951.78;;;4.59;55.73
61136;BME280;47021;51.340;12.432;2023-02-10T03:29:14;101958.25;;;4.14;56.94
61136;BME280;47021;51.340;12.432;2023-02-10T03:31:39;101959.84;;;3.87;57.65
61136;BME280;47021;51.340;12.432;2023-02-10T03:34:13;101967.22;;;4.01;57.21
61136;BME280;47021;51.340;12.432;2023-02-10T03:36:38;101967.00;;;4.10;57.32
61136;BME280;47021;51.340;12.432;2023-02-10T03:39:03;101962.00;;;4.35;56.68
61136;BME280;47021;51.340;12.432;2023-02-10T03:41:29;101953.56;;;4.57;55.30
61136;BME280;47021;51.340;12.432;2023-02-10T03:43:54;101951.50;;;4.68;55.60
61136;BME280;47021;51.340;12.432;2023-02-10T03:46:19;101965.84;;;4.51;55.61
61136;BME280;47021;51.340;12.432;2023-02-10T03:48:53;101972.69;;;4.52;56.02
61136;BME280;47021;51.340;12.432;2023-02-10T03:51:18;101974.00;;;4.36;56.39
61136;BME280;47021;51.340;12.432;2023-02-10T03:53:44;101980.00;;;4.38;55.87
61136;BME280;47021;51.340;12.432;2023-02-10T03:56:12;101993.28;;;4.25;56.47
61136;BME280;47021;51.340;12.432;2023-02-10T03:58:37;101992.50;;;4.53;55.62
61136;BME280;47021;51.340;12.432;2023-02-10T04:01:18;101995.66;;;4.33;55.86
61136;BME280;47021;51.340;12.432;2023-02-10T04:03:51;102009.09;;;4.13;56.70
61136;BME280;47021;51.340;12.432;2023-02-10T04:06:17;102016.34;;;4.32;56.05
61136;BME280;47021;51.340;12.432;2023-02-10T04:08:54;102006.28;;;4.53;55.48
61136;BME280;47021;51.340;12.432;2023-02-10T04:11:27;102012.88;;;4.63;55.20
61136;BME280;47021;51.340;12.432;2023-02-10T04:13:53;102013.69;;;4.65;54.74
61136;BME280;47021;51.340;12.432;2023-02-10T04:16:19;102013.34;;;4.77;54.87
61136;BME280;47021;51.340;12.432;2023-02-10T04:18:46;102016.91;;;4.73;54.62
61136;BME280;47021;51.340;12.432;2023-02-10T04:21:18;102003.84;;;4.78;54.71
61136;BME280;47021;51.340;12.432;2023-02-10T04:23:52;102017.38;;;4.57;55.01
61136;BME280;47021;51.340;12.432;2023-02-10T04:26:19;102003.03;;;4.76;54.73
61136;BME280;47021;51.340;12.432;2023-02-10T04:28:44;102015.13;;;4.75;54.32
61136;BME280;47021;51.340;12.432;2023-02-10T04:31:10;102008.44;;;4.68;55.02
61136;BME280;47021;51.340;12.432;2023-02-10T04:36:19;102014.13;;;4.50;55.38
61136;BME280;47021;51.340;12.432;2023-02-10T04:38:44;102022.81;;;4.15;56.56
61136;BME280;47021;51.340;12.432;2023-02-10T04:41:09;102009.28;;;4.69;55.45
61136;BME280;47021;51.340;12.432;2023-02-10T04:43:38;102016.25;;;4.96;54.83
61136;BME280;47021;51.340;12.432;2023-02-10T04:46:03;102010.34;;;4.62;55.39
61136;BME280;47021;51.340;12.432;2023-02-10T04:48:28;102013.06;;;4.86;55.42
61136;BME280;47021;51.340;12.432;2023-02-10T04:50:54;102017.31;;;4.89;55.13
61136;BME280;47021;51.340;12.432;2023-02-10T04:53:21;102012.72;;;4.98;55.04
61136;BME280;47021;51.340;12.432;2023-02-10T04:55:54;102021.16;;;4.76;55.73
61136;BME280;47021;51.340;12.432;2023-02-10T04:58:25;102020.25;;;4.77;55.98
61136;BME280;47021;51.340;12.432;2023-02-10T05:00:50;102022.69;;;4.83;55.94
61136;BME280;47021;51.340;12.432;2023-02-10T05:03:15;102014.59;;;4.93;55.81
61136;BME280;47021;51.340;12.432;2023-02-10T05:05:55;102019.34;;;5.07;55.10
61136;BME280;47021;51.340;12.432;2023-02-10T05:08:33;102024.81;;;4.98;55.80
61136;BME280;47021;51.340;12.432;2023-02-10T05:11:05;102023.06;;;4.98;55.66
61136;BME280;47021;51.340;12.432;2023-02-10T05:13:31;102018.03;;;4.94;55.71
61136;BME280;47021;51.340;12.432;2023-02-10T05:18:43;102031.22;;;5.14;55.80
61136;BME280;47021;51.340;12.432;2023-02-10T05:21:09;102030.19;;;4.90;56.33
61136;BME280;47021;51.340;12.432;2023-02-10T05:23:34;102025.03;;;4.90;56.35
61136;BME280;47021;51.340;12.432;2023-02-10T05:26:01;102035.44;;;4.89;56.70
61136;BME280;47021;51.340;12.432;2023-02-10T05:28:27;102042.59;;;4.81;56.93
61136;BME280;47021;51.340;12.432;2023-02-10T05:31:06;102040.06;;;5.07;56.28
61136;BME280;47021;51.340;12.432;2023-02-10T05:33:33;102044.59;;;5.00;56.53
61136;BME280;47021;51.340;12.432;2023-02-10T05:36:09;102051.16;;;4.83;57.53
61136;BME280;47021;51.340;12.432;2023-02-10T05:38:34;102054.19;;;4.97;56.65
61136;BME280;47021;51.340;12.432;2023-02-10T05:41:14;102061.38;;;4.87;57.51
61136;BME280;47021;51.340;12.432;2023-02-10T05:43:39;102070.38;;;4.74;57.58
61136;BME280;47021;51.340;12.432;2023-02-10T05:46:04;102059.78;;;4.82;57.69
61136;BME280;47021;51.340;12.432;2023-02-10T05:48:30;102071.25;;;5.04;57.05
61136;BME280;47021;51.340;12.432;2023-02-10T05:50:57;102077.78;;;4.86;58.25
61136;BME280;47021;51.340;12.432;2023-02-10T05:53:30;102073.41;;;4.88;57.94
61136;BME280;47021;51.340;12.432;2023-02-10T05:55:57;102078.19;;;5.02;57.62
61136;BME280;47021;51.340;12.432;2023-02-10T05:58:29;102076.91;;;4.86;58.03
61136;BME280;47021;51.340;12.432;2023-02-10T06:01:06;102073.78;;;5.06;57.33
61136;BME280;47021;51.340;12.432;2023-02-10T06:03:32;102074.38;;;5.14;57.16
61136;BME280;47021;51.340;12.432;2023-02-10T06:05:58;102075.78;;;4.96;57.93
61136;BME280;47021;51.340;12.432;2023-02-10T06:08:25;102074.00;;;4.98;57.65
61136;BME280;47021;51.340;12.432;2023-02-10T06:10:50;102081.53;;;5.06;57.42
61136;BME280;47021;51.340;12.432;2023-02-10T06:13:24;102073.97;;;5.27;57.23
61136;BME280;47021;51.340;12.432;2023-02-10T06:15:55;102077.94;;;4.80;58.26
61136;BME280;47021;51.340;12.432;2023-02-10T06:18:27;102073.44;;;5.16;57.72
61136;BME280;47021;51.340;12.432;2023-02-10T06:20:54;102066.59;;;5.15;57.23
61136;BME280;47021;51.340;12.432;2023-02-10T06:28:49;102084.69;;;5.44;62.40
61136;BME280;47021;51.340;12.432;2023-02-10T06:42:41;102089.09;;;5.68;56.50
61136;BME280;47021;51.340;12.432;2023-02-10T06:48:04;102077.63;;;5.77;56.22
61136;BME280;47021;51.340;12.432;2023-02-10T06:50:44;102082.47;;;5.88;55.89
61136;BME280;47021;51.340;12.432;2023-02-10T07:01:24;102099.53;;;5.67;56.49
61136;BME280;47021;51.340;12.432;2023-02-10T07:09:23;102108.47;;;5.86;56.72
61136;BME280;47021;51.340;12.432;2023-02-10T07:14:43;102119.28;;;5.99;56.21
61136;BME280;47021;51.340;12.432;2023-02-10T07:19:56;102128.75;;;6.00;56.24
61136;BME280;47021;51.340;12.432;2023-02-10T07:25:05;102129.72;;;5.97;56.55
61136;BME280;47021;51.340;12.432;2023-02-10T07:30:30;102136.25;;;6.09;56.62
61136;BME280;47021;51.340;12.432;2023-02-10T07:35:48;102126.81;;;6.06;56.69
61136;BME280;47021;51.340;12.432;2023-02-10T07:43:45;102130.72;;;5.92;57.90
61136;BME280;47021;51.340;12.432;2023-02-10T07:46:25;102139.56;;;5.86;58.18
61136;BME280;47021;51.340;12.432;2023-02-10T07:51:39;102134.16;;;6.20;57.56
61136;BME280;47021;51.340;12.432;2023-02-10T08:05:54;102131.59;;;5.92;58.97
61136;BME280;47021;51.340;12.432;2023-02-10T08:11:07;102152.50;;;6.14;58.53
61136;BME280;47021;51.340;12.432;2023-02-10T08:41:08;102155.50;;;6.28;58.70
61136;BME280;47021;51.340;12.432;2023-02-10T08:46:23;102159.31;;;6.69;58.27
61136;BME280;47021;51.340;12.432;2023-02-10T08:54:37;102160.34;;;6.88;57.38
61136;BME280;47021;51.340;12.432;2023-02-10T08:57:14;102155.25;;;7.09;57.15
61136;BME280;47021;51.340;12.432;2023-02-10T08:59:53;102158.41;;;7.41;56.59
61136;BME280;47021;51.340;12.432;2023-02-10T09:02:30;102147.38;;;7.57;56.14
61136;BME280;47021;51.340;12.432;2023-02-10T09:07:44;102150.88;;;7.56;56.00
61136;BME280;47021;51.340;12.432;2023-02-10T09:13:01;102158.66;;;7.35;56.43
61136;BME280;47021;51.340;12.432;2023-02-10T09:15:39;102166.66;;;7.52;56.35
61136;BME280;47021;51.340;12.432;2023-02-10T09:18:07;102165.66;;;7.77;55.97
61136;BME280;47021;51.340;12.432;2023-02-10T09:20:46;102174.06;;;7.62;56.87
61136;BME280;47021;51.340;12.432;2023-02-10T09:23:12;102172.34;;;7.38;56.28
61136;BME280;47021;51.340;12.432;2023-02-10T09:25:40;102177.03;;;7.75;56.55
61136;BME280;47021;51.340;12.432;2023-02-10T09:28:12;102173.88;;;7.67;56.38
61136;BME280;47021;51.340;12.432;2023-02-10T09:30:50;102175.25;;;7.31;56.94
61136;BME280;47021;51.340;12.432;2023-02-10T09:33:29;102169.88;;;7.58;56.85
61136;BME280;47021;51.340;12.432;2023-02-10T09:35:54;102176.56;;;7.19;57.85
61136;BME280;47021;51.340;12.432;2023-02-10T09:38:21;102177.41;;;7.20;58.16
61136;BME280;47021;51.340;12.432;2023-02-10T09:40:56;102171.56;;;7.36;57.48
61136;BME280;47021;51.340;12.432;2023-02-10T09:49:00;102158.19;;;7.70;56.64
61136;BME280;47021;51.340;12.432;2023-02-10T09:51:34;102170.09;;;7.97;56.06
61136;BME280;47021;51.340;12.432;2023-02-10T09:54:08;102170.81;;;7.79;56.16
61136;BME280;47021;51.340;12.432;2023-02-10T09:56:40;102175.56;;;7.68;56.30
61136;BME280;47021;51.340;12.432;2023-02-10T09:59:06;102170.09;;;7.52;56.42
61136;BME280;47021;51.340;12.432;2023-02-10T10:01:51;102165.38;;;7.40;56.40
61136;BME280;47021;51.340;12.432;2023-02-10T10:04:18;102159.66;;;7.31;56.86
61136;BME280;47021;51.340;12.432;2023-02-10T10:06:45;102178.88;;;6.53;59.06
61136;BME280;47021;51.340;12.432;2023-02-10T10:09:20;102167.81;;;6.21;60.54
61136;BME280;47021;51.340;12.432;2023-02-10T10:11:49;102168.84;;;6.42;60.01
61136;BME280;47021;51.340;12.432;2023-02-10T10:14:28;102166.00;;;6.74;58.96
61136;BME280;47021;51.340;12.432;2023-02-10T10:24:35;102170.41;;;6.97;58.76
61136;BME280;47021;51.340;12.432;2023-02-10T10:27:18;102171.47;;;7.84;56.78
61136;BME280;47021;51.340;12.432;2023-02-10T10:29:54;102172.88;;;7.25;57.63
61136;BME280;47021;51.340;12.432;2023-02-10T10:32:28;102170.16;;;7.51;58.27
61136;BME280;47021;51.340;12.432;2023-02-10T10:34:59;102169.56;;;8.11;56.55
61136;BME280;47021;51.340;12.432;2023-02-10T10:37:29;102159.09;;;8.54;55.28
61136;BME280;47021;51.340;12.432;2023-02-10T10:40:03;102167.63;;;8.16;55.54
61136;BME280;47021;51.340;12.432;2023-02-10T10:45:30;102164.44;;;8.71;54.29
61136;BME280;47021;51.340;12.432;2023-02-10T10:48:05;102163.84;;;8.01;56.60
61136;BME280;47021;51.340;12.432;2023-02-10T10:50:31;102163.47;;;7.67;56.68
61136;BME280;47021;51.340;12.432;2023-02-10T10:52:58;102157.75;;;8.45;56.43
61136;BME280;47021;51.340;12.432;2023-02-10T10:55:37;102145.69;;;8.63;54.94
61136;BME280;47021;51.340;12.432;2023-02-10T10:58:08;102152.25;;;7.88;56.40
61136;BME280;47021;51.340;12.432;2023-02-10T11:00:35;102154.53;;;7.74;56.50
61136;BME280;47021;51.340;12.432;2023-02-10T11:03:03;102163.09;;;7.54;57.44
61136;BME280;47021;51.340;12.432;2023-02-10T11:05:37;102156.31;;;8.38;55.76
61136;BME280;47021;51.340;12.432;2023-02-10T11:13:51;102140.41;;;8.65;54.62
61136;BME280;47021;51.340;12.432;2023-02-10T11:19:25;102141.97;;;8.89;54.29
61136;BME280;47021;51.340;12.432;2023-02-10T11:21:53;102141.88;;;9.29;53.24
61136;BME280;47021;51.340;12.432;2023-02-10T11:24:26;102133.66;;;9.38;52.97
61136;BME280;47021;51.340;12.432;2023-02-10T11:32:28;102124.50;;;9.84;52.06
61136;BME280;47021;51.340;12.432;2023-02-10T11:35:03;102138.84;;;9.19;53.84
61136;BME280;47021;51.340;12.432;2023-02-10T11:43:16;102126.16;;;9.31;53.47
61136;BME280;47021;51.340;12.432;2023-02-10T11:48:34;102135.31;;;9.02;54.55
61136;BME280;47021;51.340;12.432;2023-02-10T11:51:17;102128.94;;;9.46;53.11
61136;BME280;47021;51.340;12.432;2023-02-10T11:53:59;102129.41;;;9.36;53.39
61136;BME280;47021;51.340;12.432;2023-02-10T11:56:29;102121.97;;;9.82;52.45
61136;BME280;47021;51.340;12.432;2023-02-10T11:59:02;102113.31;;;9.82;52.35
61136;BME280;47021;51.340;12.432;2023-02-10T12:07:06;102133.19;;;8.91;54.01
61136;BME280;47021;51.340;12.432;2023-02-10T12:25:29;102098.75;;;9.95;52.60
61136;BME280;47021;51.340;12.432;2023-02-10T12:28:06;102092.09;;;10.58;51.17
61136;BME280;47021;51.340;12.432;2023-02-10T12:30:35;102087.38;;;10.82;50.49
61136;BME280;47021;51.340;12.432;2023-02-10T12:35:53;102092.34;;;10.53;50.48
61136;BME280;47021;51.340;12.432;2023-02-10T12:48:59;102060.03;;;10.22;51.43
61136;BME280;47021;51.340;12.432;2023-02-10T12:51:33;102069.63;;;9.85;52.44
61136;BME280;47021;51.340;12.432;2023-02-10T12:56:29;102064.13;;;10.93;49.84
61136;BME280;47021;51.340;12.432;2023-02-10T13:01:52;102063.38;;;10.41;51.28
61136;BME280;47021;51.340;12.432;2023-02-10T13:04:24;102070.28;;;10.08;51.79
61136;BME280;47021;51.340;12.432;2023-02-10T13:10:13;102068.84;;;10.53;50.60
61136;BME280;47021;51.340;12.432;2023-02-10T13:20:53;102058.09;;;10.08;52.15
61136;BME280;47021;51.340;12.432;2023-02-10T13:36:28;102069.31;;;10.44;50.35
61136;BME280;47021;51.340;12.432;2023-02-10T13:44:28;102067.56;;;10.45;50.61
61136;BME280;47021;51.340;12.432;2023-02-10T13:47:11;102068.47;;;10.44;50.56
61136;BME280;47021;51.340;12.432;2023-02-10T13:49:46;102063.84;;;10.49;50.86
61136;BME280;47021;51.340;12.432;2023-02-10T13:52:20;102064.94;;;10.11;51.53
61136;BME280;47021;51.340;12.432;2023-02-10T13:57:32;102065.44;;;10.00;52.00
61136;BME280;47021;51.340;12.432;2023-02-10T14:02:42;102064.97;;;10.09;51.52
61136;BME280;47021;51.340;12.432;2023-02-10T14:07:51;102065.03;;;9.90;51.51
61136;BME280;47021;51.340;12.432;2023-02-10T14:10:27;102060.25;;;9.64;52.62
61136;BME280;47021;51.340;12.432;2023-02-10T14:12:55;102052.47;;;9.99;51.92
61136;BME280;47021;51.340;12.432;2023-02-10T14:15:31;102048.66;;;10.06;51.48
61136;BME280;47021;51.340;12.432;2023-02-10T14:18:05;102049.94;;;9.44;52.52
61136;BME280;47021;51.340;12.432;2023-02-10T14:20:38;102054.41;;;9.59;52.83
61136;BME280;47021;51.340;12.432;2023-02-10T14:23:18;102059.59;;;9.78;51.83
61136;BME280;47021;51.340;12.432;2023-02-10T14:25:46;102049.25;;;9.93;51.72
61136;BME280;47021;51.340;12.432;2023-02-10T14:28:20;102040.97;;;10.03;51.69
61136;BME280;47021;51.340;12.432;2023-02-10T14:30:50;102043.72;;;9.82;51.94
61136;BME280;47021;51.340;12.432;2023-02-10T14:33:21;102046.31;;;10.00;52.08
61136;BME280;47021;51.340;12.432;2023-02-10T14:36:03;102048.16;;;9.45;52.95
61136;BME280;47021;51.340;12.432;2023-02-10T14:38:30;102034.78;;;9.34;53.89
61136;BME280;47021;51.340;12.432;2023-02-10T14:40:57;102040.50;;;9.42;53.09
61136;BME280;47021;51.340;12.432;2023-02-10T14:43:24;102031.84;;;9.94;52.34
61136;BME280;47021;51.340;12.432;2023-02-10T14:45:50;102028.53;;;10.08;51.89
61136;BME280;47021;51.340;12.432;2023-02-10T14:48:18;102026.09;;;9.16;54.00
61136;BME280;47021;51.340;12.432;2023-02-10T14:50:44;102027.53;;;9.21;54.26
61136;BME280;47021;51.340;12.432;2023-02-10T14:53:21;102037.84;;;9.24;54.29
61136;BME280;47021;51.340;12.432;2023-02-10T14:55:52;102029.16;;;9.24;54.01
61136;BME280;47021;51.340;12.432;2023-02-10T14:58:30;102032.94;;;9.36;53.47
61136;BME280;47021;51.340;12.432;2023-02-10T15:03:39;102021.91;;;9.31;53.47
61136;BME280;47021;51.340;12.432;2023-02-10T15:06:21;102022.59;;;9.70;52.19
61136;BME280;47021;51.340;12.432;2023-02-10T15:11:23;102025.03;;;9.20;53.30
61136;BME280;47021;51.340;12.432;2023-02-10T15:13:50;102033.59;;;8.66;54.14
61136;BME280;47021;51.340;12.432;2023-02-10T15:16:18;102038.78;;;8.47;54.77
61136;BME280;47021;51.340;12.432;2023-02-10T15:18:45;102029.72;;;8.56;54.86
61136;BME280;47021;51.340;12.432;2023-02-10T15:23:55;102030.13;;;9.40;52.75
61136;BME280;47021;51.340;12.432;2023-02-10T15:26:26;102029.03;;;9.27;52.86
61136;BME280;47021;51.340;12.432;2023-02-10T15:29:08;102020.13;;;9.31;52.88
61136;BME280;47021;51.340;12.432;2023-02-10T15:31:50;102026.16;;;8.77;53.80
61136;BME280;47021;51.340;12.432;2023-02-10T15:37:19;102026.72;;;9.21;53.30
61136;BME280;47021;51.340;12.432;2023-02-10T15:40:00;102030.31;;;9.18;52.87
61136;BME280;47021;51.340;12.432;2023-02-10T15:42:39;102016.84;;;9.09;53.48
61136;BME280;47021;51.340;12.432;2023-02-10T15:45:16;102019.38;;;9.10;53.33
61136;BME280;47021;51.340;12.432;2023-02-10T15:50:25;102014.91;;;9.14;53.15
61136;BME280;47021;51.340;12.432;2023-02-10T15:52:51;102011.91;;;9.21;53.00
61136;BME280;47021;51.340;12.432;2023-02-10T15:55:31;102020.53;;;9.23;52.88
61136;BME280;47021;51.340;12.432;2023-02-10T15:57:58;102017.34;;;9.17;53.10
61136;BME280;47021;51.340;12.432;2023-02-10T16:03:09;102017.28;;;8.81;53.81
61136;BME280;47021;51.340;12.432;2023-02-10T16:05:35;102016.94;;;8.89;53.47
61136;BME280;47021;51.340;12.432;2023-02-10T16:08:20;102025.09;;;8.42;55.02
61136;BME280;47021;51.340;12.432;2023-02-10T16:13:29;102030.22;;;8.24;54.83
61136;BME280;47021;51.340;12.432;2023-02-10T16:15:54;102019.91;;;8.42;54.32
61136;BME280;47021;51.340;12.432;2023-02-10T16:18:21;102018.75;;;8.29;54.52
61136;BME280;47021;51.340;12.432;2023-02-10T16:20:49;102022.22;;;8.08;54.85
61136;BME280;47021;51.340;12.432;2023-02-10T16:23:18;102014.94;;;8.16;54.79
61136;BME280;47021;51.340;12.432;2023-02-10T16:25:44;102016.84;;;7.93;55.09
61136;BME280;47021;51.340;12.432;2023-02-10T16:28:12;102026.50;;;8.09;54.84
61136;BME280;47021;51.340;12.432;2023-02-10T16:30:54;102020.03;;;7.77;55.57
61136;BME280;47021;51.340;12.432;2023-02-10T16:33:19;102015.38;;;7.65;56.22
61136;BME280;47021;51.340;12.432;2023-02-10T16:35:44;102012.06;;;7.82;55.52
61136;BME280;47021;51.340;12.432;2023-02-10T16:40:44;102008.78;;;7.77;55.67
61136;BME280;47021;51.340;12.432;2023-02-10T16:43:15;102015.69;;;7.78;55.76
61136;BME280;47021;51.340;12.432;2023-02-10T16:45:40;102015.59;;;7.81;55.46
61136;BME280;47021;51.340;12.432;2023-02-10T16:48:14;102007.31;;;7.71;55.54
61136;BME280;47021;51.340;12.432;2023-02-10T16:50:46;102007.44;;;7.89;55.44
61136;BME280;47021;51.340;12.432;2023-02-10T16:53:14;102001.16;;;7.94;55.17
61136;BME280;47021;51.340;12.432;2023-02-10T16:55:39;102000.19;;;7.97;55.00
61136;BME280;47021;51.340;12.432;2023-02-10T17:00:40;102013.16;;;7.76;55.44
61136;BME280;47021;51.340;12.432;2023-02-10T17:03:14;102005.88;;;7.84;55.40
61136;BME280;47021;51.340;12.432;2023-02-10T17:05:46;102009.34;;;8.05;54.60
61136;BME280;47021;51.340;12.432;2023-02-10T17:08:11;102006.22;;;7.97;54.99
61136;BME280;47021;51.340;12.432;2023-02-10T17:10:39;101998.25;;;7.60;55.71
61136;BME280;47021;51.340;12.432;2023-02-10T17:13:05;102004.31;;;7.39;56.81
61136;BME280;47021;51.340;12.432;2023-02-10T17:15:37;102009.63;;;7.57;56.06
61136;BME280;47021;51.340;12.432;2023-02-10T17:18:03;102008.84;;;7.55;56.30
61136;BME280;47021;51.340;12.432;2023-02-10T17:20:34;102017.19;;;7.42;56.27
61136;BME280;47021;51.340;12.432;2023-02-10T17:23:00;102015.00;;;7.53;56.00
61136;BME280;47021;51.340;12.432;2023-02-10T17:25:26;102016.63;;;7.55;55.72
61136;BME280;47021;51.340;12.432;2023-02-10T17:27:52;102014.59;;;7.42;56.17
61136;BME280;47021;51.340;12.432;2023-02-10T17:30:18;102011.44;;;7.12;56.81
61136;BME280;47021;51.340;12.432;2023-02-10T17:32:50;102006.91;;;7.39;56.11
61136;BME280;47021;51.340;12.432;2023-02-10T17:35:29;102013.13;;;7.35;55.83
61136;BME280;47021;51.340;12.432;2023-02-10T17:40:47;102019.47;;;7.28;56.40
61136;BME280;47021;51.340;12.432;2023-02-10T17:43:25;102014.47;;;7.23;56.32
61136;BME280;47021;51.340;12.432;2023-02-10T17:46:07;102026.19;;;7.33;56.18
61136;BME280;47021;51.340;12.432;2023-02-10T17:48:40;102023.88;;;7.26;56.46
61136;BME280;47021;51.340;12.432;2023-02-10T17:51:06;102019.06;;;7.17;56.46
61136;BME280;47021;51.340;12.432;2023-02-10T17:53:42;102017.53;;;7.11;56.33
61136;BME280;47021;51.340;12.432;2023-02-10T17:56:14;102008.84;;;7.12;56.75
61136;BME280;47021;51.340;12.432;2023-02-10T17:58:39;102012.91;;;7.19;56.37
61136;BME280;47021;51.340;12.432;2023-02-10T18:01:05;102000.75;;;7.20;56.45
61136;BME280;47021;51.340;12.432;2023-02-10T18:03:32;102024.88;;;7.00;56.64
61136;BME280;47021;51.340;12.432;2023-02-10T18:08:45;102033.13;;;6.65;57.93